createdAt,value
2019-04-14T00:02:25.020Z,42.04
2019-04-14T00:04:57.263Z,42.05
2019-04-14T00:07:28.223Z,42.06
2019-04-14T00:10:00.641Z,42.07
2019-04-14T00:12:32.170Z,42.05
2019-04-14T00:15:02.737Z,42.05
2019-04-14T00:17:34.788Z,42.04
2019-04-14T00:20:07.827Z,42.01
2019-04-14T00:22:38.460Z,42.02
2019-04-14T00:25:10.717Z,42.01
2019-04-14T00:27:41.257Z,42.01
2019-04-14T00:30:14.418Z,42.02
2019-04-14T00:32:46.586Z,42.01
2019-04-14T00:35:38.589Z,42.01
2019-04-14T00:38:19.599Z,42.00
2019-04-14T00:40:51.831Z,42.01
2019-04-14T00:43:41.803Z,42.00
2019-04-14T00:46:14.646Z,42.00
2019-04-14T00:48:47.377Z,41.99
2019-04-14T00:51:19.941Z,41.99
2019-04-14T00:53:51.315Z,41.98
2019-04-14T00:56:22.205Z,41.98
2019-04-14T00:58:53.918Z,41.99
2019-04-14T01:01:24.841Z,42.00
2019-04-14T01:03:55.502Z,41.99
2019-04-14T01:06:25.790Z,41.99
2019-04-14T01:08:56.023Z,42.01
2019-04-14T01:11:27.093Z,42.02
2019-04-14T01:13:59.308Z,42.01
2019-04-14T01:16:30.124Z,42.01
2019-04-14T01:19:00.790Z,42.02
2019-04-14T01:21:32.786Z,42.02
2019-04-14T01:24:03.877Z,42.02
2019-04-14T01:26:35.628Z,42.05
2019-04-14T01:29:07.912Z,42.04
2019-04-14T01:31:40.230Z,42.01
2019-04-14T01:34:10.834Z,42.03
2019-04-14T01:36:41.317Z,42.03
2019-04-14T01:39:11.925Z,42.03
2019-04-14T01:41:43.179Z,42.02
2019-04-14T01:44:13.862Z,42.03
2019-04-14T01:46:44.149Z,42.04
2019-04-14T01:49:15.701Z,42.02
2019-04-14T01:51:51.135Z,42.02
2019-04-14T01:54:29.950Z,42.05
2019-04-14T01:57:04.653Z,42.02
2019-04-14T01:59:35.329Z,42.04
2019-04-14T02:02:07.542Z,42.04
2019-04-14T02:04:38.566Z,42.03
2019-04-14T02:07:10.223Z,42.04
2019-04-14T02:09:40.638Z,42.04
2019-04-14T02:12:10.878Z,42.05
2019-04-14T02:14:41.166Z,42.05
2019-04-14T02:17:11.461Z,42.05
2019-04-14T02:19:42.044Z,42.07
2019-04-14T02:22:13.707Z,42.06
2019-04-14T02:24:46.007Z,42.06
2019-04-14T02:27:16.787Z,42.07
2019-04-14T02:29:47.451Z,42.07
2019-04-14T02:37:58.559Z,42.06
2019-04-14T02:40:28.607Z,42.06
2019-04-14T02:45:32.374Z,42.08
2019-04-14T02:48:04.790Z,42.07
2019-04-14T02:50:32.497Z,42.09
2019-04-14T02:53:07.709Z,42.09
2019-04-14T02:55:44.811Z,42.09
2019-04-14T03:03:21.675Z,42.10
2019-04-14T03:08:25.255Z,42.12
2019-04-14T03:10:53.577Z,42.14
2019-04-14T03:13:29.260Z,42.14
2019-04-14T03:16:05.240Z,42.14
2019-04-14T03:18:44.678Z,42.15
2019-04-14T03:21:03.503Z,42.17
2019-04-14T03:23:41.611Z,42.17
2019-04-14T03:26:06.688Z,42.19
2019-04-14T03:31:39.642Z,42.24
2019-04-14T03:34:18.208Z,42.25
2019-04-14T03:39:00.288Z,42.29
2019-04-14T03:43:54.525Z,42.33
2019-04-14T03:49:08.174Z,42.38
2019-04-14T03:51:50.209Z,42.40
2019-04-14T03:54:03.332Z,42.40
2019-04-14T03:56:51.388Z,42.42
2019-04-14T03:59:23.858Z,42.44
2019-04-14T04:01:54.640Z,42.44
2019-04-14T04:04:25.551Z,42.45
2019-04-14T04:06:55.800Z,42.47
2019-04-14T04:09:32.107Z,42.48
2019-04-14T04:12:03.120Z,42.50
2019-04-14T04:14:33.979Z,42.52
2019-04-14T04:17:21.241Z,42.55
2019-04-14T04:19:55.968Z,42.56
2019-04-14T04:22:37.021Z,42.58
2019-04-14T04:25:11.613Z,42.58
2019-04-14T04:28:01.536Z,42.59
2019-04-14T04:30:34.094Z,42.62
2019-04-14T04:33:18.410Z,42.60
2019-04-14T04:35:50.683Z,42.63
2019-04-14T04:38:22.298Z,42.65
2019-04-14T04:40:53.352Z,42.63
2019-04-14T04:43:23.957Z,42.66
2019-04-14T04:45:55.881Z,42.68
2019-04-14T04:48:26.854Z,42.69
2019-04-14T04:50:58.549Z,42.69
2019-04-14T04:53:29.353Z,42.75
2019-04-14T04:56:01.501Z,42.78
2019-04-14T04:58:32.762Z,42.83
2019-04-14T05:01:03.796Z,42.88
2019-04-14T05:03:34.120Z,42.93
2019-04-14T05:06:48.421Z,42.96
2019-04-14T05:09:21.029Z,43.02
2019-04-14T05:12:09.144Z,43.06
2019-04-14T05:14:58.582Z,43.08
2019-04-14T05:17:36.847Z,43.06
2019-04-14T05:20:07.708Z,43.04
2019-04-14T05:22:37.983Z,43.04
2019-04-14T05:25:10.060Z,43.00
2019-04-14T05:27:43.045Z,42.94
2019-04-14T05:30:15.329Z,42.89
2019-04-14T05:32:47.956Z,42.86
2019-04-14T05:35:18.438Z,42.84
2019-04-14T05:37:48.729Z,42.83
2019-04-14T05:40:21.059Z,42.82
2019-04-14T05:42:51.705Z,42.79
2019-04-14T05:45:22.273Z,42.75
2019-04-14T05:47:52.907Z,42.72
2019-04-14T05:50:24.663Z,42.77
2019-04-14T05:52:55.803Z,42.73
2019-04-14T05:55:26.486Z,42.69
2019-04-14T05:57:56.879Z,42.71
2019-04-14T06:00:27.831Z,42.72
2019-04-14T06:02:59.507Z,42.73
2019-04-14T06:05:31.844Z,42.75
2019-04-14T06:08:02.517Z,42.72
2019-04-14T06:10:33.522Z,42.65
2019-04-14T06:13:04.087Z,42.58
2019-04-14T06:15:36.114Z,42.44
2019-04-14T06:18:06.930Z,42.37
2019-04-14T06:20:37.742Z,42.33
2019-04-14T06:23:08.413Z,42.28
2019-04-14T06:25:39.056Z,42.20
2019-04-14T06:28:09.822Z,42.08
2019-04-14T06:30:47.668Z,42.00
2019-04-14T06:33:25.689Z,41.96
2019-04-14T06:36:06.777Z,41.80
2019-04-14T06:38:42.990Z,41.60
2019-04-14T06:41:15.526Z,41.39
2019-04-14T06:43:49.206Z,41.21
2019-04-14T06:46:18.164Z,41.11
2019-04-14T06:48:48.403Z,40.95
2019-04-14T06:51:20.105Z,40.89
2019-04-14T06:53:50.968Z,40.78
2019-04-14T06:56:21.331Z,40.70
2019-04-14T06:58:52.704Z,40.60
2019-04-14T07:01:23.296Z,40.43
2019-04-14T07:03:54.067Z,40.29
2019-04-14T07:06:24.914Z,40.16
2019-04-14T07:08:55.192Z,40.00
2019-04-14T07:11:25.780Z,39.86
2019-04-14T07:13:56.256Z,39.70
2019-04-14T07:16:26.509Z,39.50
2019-04-14T07:18:57.100Z,39.34
2019-04-14T07:21:27.890Z,39.19
2019-04-14T07:24:00.667Z,38.99
2019-04-14T07:26:30.949Z,38.81
2019-04-14T07:29:01.894Z,38.65
2019-04-14T07:31:36.652Z,38.46
2019-04-14T07:34:09.744Z,38.29
2019-04-14T07:36:45.881Z,38.12
2019-04-14T07:39:20.246Z,37.92
2019-04-14T07:41:52.097Z,37.71
2019-04-14T07:44:27.235Z,37.52
2019-04-14T07:46:59.543Z,37.35
2019-04-14T07:49:43.426Z,37.15
2019-04-14T07:52:21.346Z,36.96
2019-04-14T07:54:54.854Z,36.74
2019-04-14T07:57:34.266Z,36.58
2019-04-14T08:00:21.138Z,36.38
2019-04-14T08:03:02.540Z,36.23
2019-04-14T08:05:34.501Z,36.03
2019-04-14T08:08:04.870Z,35.85
2019-04-14T08:10:35.114Z,35.74
2019-04-14T08:13:06.239Z,35.62
2019-04-14T08:15:36.546Z,35.48
2019-04-14T08:18:06.944Z,35.39
2019-04-14T08:20:37.683Z,35.27
2019-04-14T08:23:08.355Z,35.11
2019-04-14T08:25:38.651Z,34.96
2019-04-14T08:28:09.288Z,34.83
2019-04-14T08:30:39.920Z,34.71
2019-04-14T08:33:10.215Z,34.56
2019-04-14T08:35:40.792Z,34.45
2019-04-14T08:38:11.075Z,34.34
2019-04-14T08:40:41.655Z,34.14
2019-04-14T08:43:19.869Z,34.01
2019-04-14T08:45:54.354Z,33.92
2019-04-14T08:48:25.764Z,33.81
2019-04-14T08:51:13.751Z,33.64
2019-04-14T08:54:02.400Z,33.48
2019-04-14T08:56:40.672Z,33.33
2019-04-14T08:59:12.954Z,33.14
2019-04-14T09:02:00.154Z,32.97
2019-04-14T09:04:47.909Z,32.79
2019-04-14T09:07:19.779Z,32.63
2019-04-14T09:09:51.994Z,32.48
2019-04-14T09:12:33.286Z,32.32
2019-04-14T09:15:04.589Z,32.23
2019-04-14T09:17:36.387Z,32.06
2019-04-14T09:20:07.603Z,31.96
2019-04-14T09:22:38.190Z,31.87
2019-04-14T09:25:09.105Z,31.74
2019-04-14T09:27:39.430Z,31.62
2019-04-14T09:30:10.401Z,31.55
2019-04-14T09:32:40.707Z,31.49
2019-04-14T09:35:11.061Z,31.46
2019-04-14T09:37:41.322Z,31.37
2019-04-14T09:40:11.733Z,31.35
2019-04-14T09:42:42.296Z,31.28
2019-04-14T09:45:12.918Z,31.18
2019-04-14T09:47:43.490Z,31.10
2019-04-14T09:50:15.837Z,31.04
2019-04-14T09:52:46.145Z,30.97
2019-04-14T09:55:18.360Z,30.92
2019-04-14T09:57:48.633Z,30.83
2019-04-14T10:00:19.830Z,30.75
2019-04-14T10:02:50.031Z,30.67
2019-04-14T10:05:20.901Z,30.58
2019-04-14T10:07:51.201Z,30.42
2019-04-14T10:10:21.426Z,30.35
2019-04-14T10:12:51.668Z,30.24
2019-04-14T10:15:21.889Z,30.16
2019-04-14T10:17:52.132Z,30.11
2019-04-14T10:20:22.347Z,30.01
2019-04-14T10:22:52.589Z,29.89
2019-04-14T10:25:22.803Z,29.79
2019-04-14T10:27:53.107Z,29.64
2019-04-14T10:30:23.334Z,29.56
2019-04-14T10:32:53.606Z,29.47
2019-04-14T10:35:23.800Z,29.43
2019-04-14T10:37:54.029Z,29.38
2019-04-14T10:40:24.275Z,29.35
2019-04-14T10:42:54.491Z,29.31
2019-04-14T10:45:24.915Z,29.30
2019-04-14T10:47:55.234Z,29.28
2019-04-14T10:50:31.193Z,29.25
2019-04-14T10:52:58.756Z,29.25
2019-04-14T10:55:29.335Z,29.25
2019-04-14T10:57:59.693Z,29.25
2019-04-14T11:00:30.264Z,29.25
2019-04-14T11:03:00.647Z,29.26
2019-04-14T11:05:32.503Z,29.24
2019-04-14T11:08:03.102Z,29.21
2019-04-14T11:10:33.466Z,29.20
2019-04-14T11:13:04.100Z,29.19
2019-04-14T11:15:34.390Z,29.16
2019-04-14T11:18:05.013Z,29.11
2019-04-14T11:20:37.294Z,29.08
2019-04-14T11:23:08.158Z,29.04
2019-04-14T11:25:38.810Z,29.04
2019-04-14T11:28:09.461Z,29.08
2019-04-14T11:30:40.133Z,29.04
2019-04-14T11:33:18.041Z,28.99
2019-04-14T11:35:53.166Z,28.97
2019-04-14T11:38:27.824Z,28.97
2019-04-14T11:41:02.143Z,28.95
2019-04-14T11:43:33.471Z,28.95
2019-04-14T11:46:04.237Z,28.94
2019-04-14T11:48:35.181Z,28.92
2019-04-14T11:51:05.413Z,28.89
2019-04-14T11:53:36.227Z,28.85
2019-04-14T11:56:08.376Z,28.80
2019-04-14T11:58:39.055Z,28.79
2019-04-14T12:01:23.552Z,28.81
2019-04-14T12:04:03.000Z,28.81
2019-04-14T12:06:34.955Z,28.83
2019-04-14T12:09:08.809Z,28.79
2019-04-14T12:11:39.801Z,28.77
2019-04-14T12:14:10.109Z,28.74
2019-04-14T12:16:43.224Z,28.72
2019-04-14T12:19:13.521Z,28.72
2019-04-14T12:21:44.172Z,28.67
2019-04-14T12:24:14.830Z,28.69
2019-04-14T12:26:45.454Z,28.66
2019-04-14T12:29:16.775Z,28.63
2019-04-14T12:31:49.023Z,28.60
2019-04-14T12:34:20.563Z,28.58
2019-04-14T12:36:51.250Z,28.58
2019-04-14T12:39:24.915Z,28.53
2019-04-14T12:42:12.946Z,28.51
2019-04-14T12:45:00.931Z,28.49
2019-04-14T12:47:40.102Z,28.47
2019-04-14T12:50:10.531Z,28.48
2019-04-14T12:52:40.804Z,28.46
2019-04-14T12:55:12.215Z,28.45
2019-04-14T12:57:47.172Z,28.43
2019-04-14T13:00:26.882Z,28.42
2019-04-14T13:02:57.444Z,28.37
2019-04-14T13:05:28.166Z,28.35
2019-04-14T13:07:58.842Z,28.34
2019-04-14T13:10:29.534Z,28.31
2019-04-14T13:12:59.800Z,28.30
2019-04-14T13:15:30.126Z,28.29
2019-04-14T13:18:00.763Z,28.26
2019-04-14T13:20:31.413Z,28.23
2019-04-14T13:23:02.082Z,28.23
2019-04-14T13:25:33.630Z,28.21
2019-04-14T13:28:04.101Z,28.20
2019-04-14T13:30:35.954Z,28.18
2019-04-14T13:33:08.360Z,28.18
2019-04-14T13:35:38.648Z,28.16
2019-04-14T13:38:08.864Z,28.13
2019-04-14T13:40:39.486Z,28.12
2019-04-14T13:43:10.960Z,28.07
2019-04-14T13:45:41.627Z,28.03
2019-04-14T13:48:11.909Z,28.03
2019-04-14T13:50:43.054Z,27.98
2019-04-14T13:53:13.374Z,27.96
2019-04-14T13:55:44.100Z,27.94
2019-04-14T13:58:14.761Z,27.93
2019-04-14T14:00:45.698Z,27.93
2019-04-14T14:03:16.458Z,27.91
2019-04-14T14:05:46.764Z,27.88
2019-04-14T14:08:17.568Z,27.85
2019-04-14T14:10:48.286Z,27.84
2019-04-14T14:13:29.908Z,27.82
2019-04-14T14:16:16.073Z,27.79
2019-04-14T14:18:50.426Z,27.77
2019-04-14T14:21:39.516Z,27.75
2019-04-14T14:24:29.970Z,27.73
2019-04-14T14:27:02.577Z,27.71
2019-04-14T14:29:32.864Z,27.65
2019-04-14T14:32:05.163Z,27.64
2019-04-14T14:34:35.828Z,27.62
2019-04-14T14:37:06.466Z,27.59
2019-04-14T14:39:37.143Z,27.57
2019-04-14T14:42:07.773Z,27.55
2019-04-14T14:44:42.323Z,27.54
2019-04-14T14:47:13.841Z,27.50
2019-04-14T14:49:45.765Z,27.48
2019-04-14T14:52:20.929Z,27.48
2019-04-14T14:54:51.244Z,27.45
2019-04-14T14:57:23.008Z,27.43
2019-04-14T14:59:53.316Z,27.39
2019-04-14T15:02:24.151Z,27.37
2019-04-14T15:04:58.393Z,27.36
2019-04-14T15:07:28.495Z,27.34
2019-04-14T15:09:59.079Z,27.33
2019-04-14T15:12:29.384Z,27.30
2019-04-14T15:14:59.595Z,27.28
2019-04-14T15:17:29.940Z,27.26
2019-04-14T15:20:00.535Z,27.24
2019-04-14T15:22:32.157Z,27.23
2019-04-14T15:25:02.808Z,27.22
2019-04-14T15:27:33.467Z,27.19
2019-04-14T15:30:06.460Z,27.20
2019-04-14T15:32:37.053Z,27.16
2019-04-14T15:35:07.926Z,27.15
2019-04-14T15:37:38.880Z,27.12
2019-04-14T15:40:10.547Z,27.12
2019-04-14T15:42:42.126Z,27.10
2019-04-14T15:45:14.149Z,27.07
2019-04-14T15:47:44.498Z,27.07
2019-04-14T15:50:15.473Z,27.04
2019-04-14T15:52:45.783Z,27.04
2019-04-14T15:55:17.859Z,27.01
2019-04-14T15:57:56.743Z,27.01
2019-04-14T16:00:45.147Z,27.00
2019-04-14T16:03:26.047Z,26.99
2019-04-14T16:06:03.639Z,26.98
2019-04-14T16:08:50.732Z,26.98
2019-04-14T16:11:40.028Z,26.97
2019-04-14T16:14:18.088Z,26.94
2019-04-14T16:17:06.081Z,26.95
2019-04-14T16:19:50.893Z,26.93
2019-04-14T16:22:21.457Z,26.90
2019-04-14T16:24:52.944Z,26.90
2019-04-14T16:27:24.867Z,26.89
2019-04-14T16:30:14.490Z,26.87
2019-04-14T16:33:03.082Z,26.86
2019-04-14T16:35:35.473Z,26.85
2019-04-14T16:38:06.241Z,26.83
2019-04-14T16:40:37.580Z,26.83
2019-04-14T16:43:08.305Z,26.80
2019-04-14T16:45:39.138Z,26.79
2019-04-14T16:48:09.880Z,26.79
2019-04-14T16:50:40.109Z,26.80
2019-04-14T16:53:29.987Z,26.80
2019-04-14T16:56:07.800Z,26.79
2019-04-14T16:58:42.634Z,26.78
2019-04-14T17:01:20.454Z,26.77
2019-04-14T17:03:50.677Z,26.76
2019-04-14T17:06:20.969Z,26.76
2019-04-14T17:08:51.796Z,26.76
2019-04-14T17:11:22.094Z,26.77
2019-04-14T17:13:53.951Z,26.76
2019-04-14T17:16:41.903Z,26.76
2019-04-14T17:19:13.870Z,26.75
2019-04-14T17:21:48.437Z,26.76
2019-04-14T17:24:20.782Z,26.74
2019-04-14T17:26:58.944Z,26.75
2019-04-14T17:29:36.954Z,26.76
2019-04-14T17:32:09.190Z,26.75
2019-04-14T17:34:43.793Z,26.73
2019-04-14T17:37:15.651Z,26.74
2019-04-14T17:39:50.826Z,26.73
2019-04-14T17:42:22.693Z,26.75
2019-04-14T17:44:58.801Z,26.77
2019-04-14T17:47:30.658Z,26.77
2019-04-14T17:50:08.969Z,26.77
2019-04-14T17:52:41.717Z,26.76
2019-04-14T17:55:16.827Z,26.76
2019-04-14T17:57:57.398Z,26.76
2019-04-14T18:00:35.236Z,26.79
2019-04-14T18:03:19.026Z,26.79
2019-04-14T18:05:53.550Z,26.79
2019-04-14T18:08:34.141Z,26.81
2019-04-14T18:14:00.419Z,26.85
2019-04-14T18:16:32.303Z,26.89
2019-04-14T18:19:10.418Z,26.91
2019-04-14T18:21:41.071Z,26.92
2019-04-14T18:24:11.260Z,26.94
2019-04-14T18:26:41.476Z,26.95
2019-04-14T18:29:28.573Z,26.98
2019-04-14T18:32:03.340Z,26.99
2019-04-14T18:34:35.224Z,27.02
2019-04-14T18:37:07.252Z,27.04
2019-04-14T18:39:39.397Z,27.06
2019-04-14T18:42:11.421Z,27.08
2019-04-14T18:44:52.427Z,27.11
2019-04-14T18:47:24.308Z,27.12
2019-04-14T18:50:14.213Z,27.16
2019-04-14T18:53:01.147Z,27.18
2019-04-14T18:55:40.306Z,27.20
2019-04-14T18:58:12.115Z,27.23
2019-04-14T19:00:46.685Z,27.24
2019-04-14T19:03:17.394Z,27.27
2019-04-14T19:05:47.743Z,27.29
2019-04-14T19:08:18.369Z,27.30
2019-04-14T19:11:06.747Z,27.34
2019-04-14T19:13:38.425Z,27.35
2019-04-14T19:16:12.805Z,27.37
2019-04-14T19:18:44.735Z,27.41
2019-04-14T19:21:16.582Z,27.42
2019-04-14T19:23:47.191Z,27.44
2019-04-14T19:26:17.498Z,27.46
2019-04-14T19:28:48.100Z,27.50
2019-04-14T19:31:18.377Z,27.53
2019-04-14T19:33:48.793Z,27.56
2019-04-14T19:36:19.002Z,27.57
2019-04-14T19:38:49.391Z,27.60
2019-04-14T19:41:20.988Z,27.63
2019-04-14T19:43:51.656Z,27.66
2019-04-14T19:46:21.959Z,27.68
2019-04-14T19:48:52.531Z,27.69
2019-04-14T19:51:22.846Z,27.70
2019-04-14T19:53:53.533Z,27.75
2019-04-14T19:56:23.817Z,27.77
2019-04-14T19:58:54.056Z,27.78
2019-04-14T20:01:24.455Z,27.81
2019-04-14T20:03:55.060Z,27.84
2019-04-14T20:06:26.986Z,27.89
2019-04-14T20:08:57.314Z,27.93
2019-04-14T20:11:27.537Z,27.94
2019-04-14T20:13:57.774Z,27.97
2019-04-14T20:16:47.724Z,28.01
2019-04-14T20:19:28.403Z,28.03
2019-04-14T20:22:10.400Z,28.06
2019-04-14T20:24:48.516Z,28.08
2019-04-14T20:27:21.535Z,28.13
2019-04-14T20:30:11.355Z,28.16
2019-04-14T20:32:43.858Z,28.18
2019-04-14T20:35:14.910Z,28.20
2019-04-14T20:37:46.320Z,28.24
2019-04-14T20:40:16.986Z,28.28
2019-04-14T20:42:47.990Z,28.30
2019-04-14T20:45:18.822Z,28.33
2019-04-14T20:47:49.158Z,28.36
2019-04-14T20:50:19.373Z,28.37
2019-04-14T20:52:51.393Z,28.42
2019-04-14T20:55:21.913Z,28.45
2019-04-14T20:57:52.730Z,28.49
2019-04-14T21:00:23.297Z,28.53
2019-04-14T21:03:13.233Z,28.54
2019-04-14T21:06:01.451Z,28.58
2019-04-14T21:08:51.882Z,28.62
2019-04-14T21:11:24.168Z,28.66
2019-04-14T21:14:05.464Z,28.68
2019-04-14T21:16:37.389Z,28.73
2019-04-14T21:19:09.748Z,28.75
2019-04-14T21:21:42.063Z,28.82
2019-04-14T21:24:19.727Z,28.83
2019-04-14T21:27:08.340Z,28.85
2019-04-14T21:29:43.486Z,28.91
2019-04-14T21:32:15.406Z,28.94
2019-04-14T21:34:53.510Z,28.97
2019-04-14T21:37:37.959Z,29.00
2019-04-14T21:40:11.027Z,29.06
2019-04-14T21:42:42.587Z,29.08
2019-04-14T21:45:12.873Z,29.12
2019-04-14T21:47:43.117Z,29.13
2019-04-14T21:50:13.991Z,29.17
2019-04-14T21:52:49.342Z,29.21
2019-04-14T21:55:18.675Z,29.25
2019-04-14T21:58:07.218Z,29.29
2019-04-14T22:01:06.201Z,29.32
2019-04-14T22:03:53.814Z,29.35
2019-04-14T22:06:28.245Z,29.39
2019-04-14T22:08:58.490Z,29.43
2019-04-14T22:11:28.815Z,29.48
2019-04-14T22:13:59.071Z,29.51
2019-04-14T22:16:29.577Z,29.54
2019-04-14T22:19:00.215Z,29.58
2019-04-14T22:21:30.867Z,29.62
2019-04-14T22:24:02.165Z,29.65
2019-04-14T22:26:33.202Z,29.68
2019-04-14T22:29:03.864Z,29.72
2019-04-14T22:31:34.127Z,29.74
2019-04-14T22:34:05.372Z,29.79
2019-04-14T22:36:35.581Z,29.85
2019-04-14T22:39:09.246Z,29.86
2019-04-14T22:41:40.920Z,29.90
2019-04-14T22:44:11.137Z,29.95
2019-04-14T22:46:41.703Z,29.98
2019-04-14T22:49:11.999Z,30.03
2019-04-14T22:51:42.555Z,30.07
2019-04-14T22:54:13.357Z,30.11
2019-04-14T22:56:44.019Z,30.15
2019-04-14T22:59:15.471Z,30.19
2019-04-14T23:01:47.753Z,30.22
2019-04-14T23:04:35.543Z,30.25
2019-04-14T23:07:11.884Z,30.31
2019-04-14T23:09:49.744Z,30.33
2019-04-14T23:12:22.041Z,30.37
2019-04-14T23:14:53.954Z,30.44
2019-04-14T23:17:28.964Z,30.49
2019-04-14T23:20:16.394Z,30.53
2019-04-14T23:22:51.154Z,30.58
2019-04-14T23:25:21.360Z,30.60
2019-04-14T23:27:51.947Z,30.63
2019-04-14T23:30:22.603Z,30.68
2019-04-14T23:32:53.254Z,30.70
2019-04-14T23:35:24.612Z,30.74
2019-04-14T23:37:55.571Z,30.78
2019-04-14T23:40:25.878Z,30.82
2019-04-14T23:42:56.091Z,30.85
2019-04-14T23:45:26.674Z,30.88
2019-04-14T23:47:57.334Z,30.93
2019-04-14T23:50:27.988Z,30.99
2019-04-14T23:52:58.642Z,30.99
2019-04-14T23:55:28.921Z,31.03
2019-04-14T23:57:59.158Z,31.05
